Terminal Aerodrome Forecast
Issued by NWS

Home | Current Version | Previous Version | Text Only | Print | Product List | Glossary On
Versions: 1 2 3 4 5 6 7 8 9 10 11 12 13 14 15 16 17 18 19 20 21 22 23 24 25
102
FTUS46 KSEW 260536
TAFSEA
TAF
KSEA 260536Z 2606/2712 14005KT P6SM BKN050 OVC150
     FM261200 11005KT P6SM BKN050 OVC110
     FM261500 11006KT P6SM -RA SCT035 OVC050
     FM261800 11010KT P6SM -RA BKN035 OVC050
     FM262100 13008KT 6SM -RA BR OVC025
     FM270300 18010KT P6SM VCSH BKN025 OVC040 PROB30 2703/2709
      -SHRA=

USA.gov is the U.S. government's official web portal to all federal, state and local government web resources and services.